Time;durP1;ratioP1;P1;durP2;ratioP2;P2;SDS_P1;SDS_P2;PMS_P1;PMS_P2;Temp;Humidity;BMP_temperature;BMP_pressure;BME280_temperature;BME280_humidity;BME280_pressure;Samples;Min_cycle;Max_cycle;Signal;HPM_P1;HPM_P2
2024/02/04 00:04:41;;;;;;;;;;;;;;;5.61;100.00;96655.00;10432008;28;2123;-63
2024/02/04 00:09:48;;;;;;;;;;;;;;;5.59;100.00;96654.38;10431494;28;2098;-65
2024/02/04 00:14:56;;;;;;;;;;;;;;;5.53;100.00;96651.78;10432463;28;2131;-65
2024/02/04 00:20:05;;;;;;;;;;;;;;;5.59;100.00;96659.72;10428104;28;2256;-75
2024/02/04 00:25:11;;;;;;;;;;;;;;;5.59;100.00;96653.56;10431547;28;2147;-68
2024/02/04 00:30:16;;;;;;;;;;;;;;;5.55;100.00;96647.88;10434175;28;2338;-68
2024/02/04 00:35:27;;;;;;;;;;;;;;;5.48;100.00;96638.31;10426960;28;2024;-72
2024/02/04 00:40:40;;;;;;;;;;;;;;;5.39;100.00;96627.09;10427107;28;2087;-66
2024/02/04 00:45:48;;;;;;;;;;;;;;;5.42;100.00;96621.34;10428913;28;2108;-66
2024/02/04 00:50:54;;;;;;;;;;;;;;;5.41;100.00;96615.19;10426062;28;2355;-68
2024/02/04 00:55:57;;;;;;;;;;;;;;;5.38;100.00;96604.94;10436049;28;2112;-66
2024/02/04 01:01:03;;;;;;;;;;;;;;;5.41;100.00;96599.19;10434614;28;2180;-64
2024/02/04 01:06:15;;;;;;;;;;;;;;;5.40;100.00;96602.06;10427880;28;2224;-65
2024/02/04 01:11:21;;;;;;;;;;;;;;;5.45;100.00;96588.06;10420769;28;2166;-65
2024/02/04 01:16:25;;;;;;;;;;;;;;;5.41;100.00;96577.88;10415280;28;2372;-65
2024/02/04 01:21:31;;;;;;;;;;;;;;;5.34;100.00;96576.28;10429577;28;2082;-66
2024/02/04 01:26:36;;;;;;;;;;;;;;;5.23;100.00;96575.16;10430132;28;2302;-65
2024/02/04 01:31:41;;;;;;;;;;;;;;;5.13;100.00;96569.50;10425669;28;2037;-66
2024/02/04 01:36:44;;;;;;;;;;;;;;;5.06;100.00;96563.44;10429077;28;2057;-66
2024/02/04 01:41:47;;;;;;;;;;;;;;;5.04;100.00;96584.16;10428158;28;2004;-69
2024/02/04 01:46:53;;;;;;;;;;;;;;;5.10;100.00;96585.97;10429314;28;2267;-65
2024/02/04 01:51:59;;;;;;;;;;;;;;;5.22;100.00;96615.38;10428970;28;2391;-66
2024/02/04 01:57:04;;;;;;;;;;;;;;;5.35;100.00;96610.75;10429795;28;2041;-68
2024/02/04 02:02:10;;;;;;;;;;;;;;;5.38;100.00;96604.94;10428206;28;2569;-66
2024/02/04 02:07:20;;;;;;;;;;;;;;;5.41;100.00;96596.53;10427955;28;1990;-66
2024/02/04 02:12:24;;;;;;;;;;;;;;;5.43;100.00;96575.78;10425750;28;2279;-67
2024/02/04 02:17:32;;;;;;;;;;;;;;;5.51;100.00;96587.19;10427321;28;2041;-67
2024/02/04 02:22:36;;;;;;;;;;;;;;;5.52;100.00;96591.47;10410025;28;2077;-66
2024/02/04 02:27:47;;;;;;;;;;;;;;;5.47;100.00;96575.31;10430703;28;2116;-67
2024/02/04 02:32:57;;;;;;;;;;;;;;;5.37;100.00;96568.66;10426900;28;2147;-67
2024/02/04 02:38:11;;;;;;;;;;;;;;;5.36;100.00;96572.38;10424336;28;2072;-66
2024/02/04 02:43:17;;;;;;;;;;;;;;;5.40;100.00;96565.53;10422289;28;2095;-64
2024/02/04 02:48:22;;;;;;;;;;;;;;;5.42;100.00;96568.00;10423924;28;2398;-66
2024/02/04 02:53:28;;;;;;;;;;;;;;;5.48;100.00;96564.47;10407118;28;2060;-67
2024/02/04 02:58:32;;;;;;;;;;;;;;;5.51;100.00;96560.53;10389922;28;2160;-68
2024/02/04 03:03:39;;;;;;;;;;;;;;;5.58;100.00;96571.94;10410130;28;2113;-66
2024/02/04 03:08:43;;;;;;;;;;;;;;;5.56;100.00;96574.00;10431183;28;2314;-66
2024/02/04 03:13:50;;;;;;;;;;;;;;;5.57;100.00;96579.13;10435069;28;2096;-66
2024/02/04 03:18:56;;;;;;;;;;;;;;;5.57;100.00;96589.78;10433794;28;1966;-66
2024/02/04 03:24:00;;;;;;;;;;;;;;;5.64;100.00;96576.38;10432898;28;2049;-66
2024/02/04 03:29:06;;;;;;;;;;;;;;;5.72;100.00;96580.59;10416194;28;2260;-66
2024/02/04 03:34:09;;;;;;;;;;;;;;;5.70;100.00;96581.63;10417646;28;2135;-66
2024/02/04 03:39:22;;;;;;;;;;;;;;;5.73;100.00;96579.56;10435816;28;2113;-68
2024/02/04 03:44:27;;;;;;;;;;;;;;;5.69;100.00;96573.84;10436311;28;2116;-69
2024/02/04 03:49:31;;;;;;;;;;;;;;;5.70;100.00;96570.16;10434411;28;2455;-73
2024/02/04 03:54:38;;;;;;;;;;;;;;;5.78;100.00;96572.50;10433295;28;2069;-66
2024/02/04 03:59:41;;;;;;;;;;;;;;;5.71;100.00;96571.78;10430778;28;2029;-67
2024/02/04 04:04:47;;;;;;;;;;;;;;;5.70;100.00;96570.16;10432847;28;2455;-71
2024/02/04 04:10:00;;;;;;;;;;;;;;;5.79;100.00;96562.66;10417417;28;2131;-66
2024/02/04 04:15:09;;;;;;;;;;;;;;;5.84;100.00;96568.13;10414436;28;2607;-67
2024/02/04 04:20:15;;;;;;;;;;;;;;;5.88;100.00;96572.81;10433452;28;2112;-65
2024/02/04 04:25:22;;;;;;;;;;;;;;;5.69;100.00;96579.19;10435879;28;2118;-66
2024/02/04 04:30:30;;;;;;;;;;;;;;;5.65;100.00;96573.47;10432922;28;2116;-65
2024/02/04 04:35:38;;;;;;;;;;;;;;;5.49;100.00;96587.41;10430271;28;6618;-66
2024/02/04 04:40:42;;;;;;;;;;;;;;;5.46;100.00;96603.03;10435095;28;2309;-66
2024/02/04 04:45:47;;;;;;;;;;;;;;;5.35;100.00;96605.41;10432663;28;2041;-73
2024/02/04 04:50:52;;;;;;;;;;;;;;;5.40;100.00;96607.38;10435233;28;2123;-70
2024/02/04 04:55:59;;;;;;;;;;;;;;;5.34;100.00;96606.44;10432546;28;2064;-69
2024/02/04 05:01:05;;;;;;;;;;;;;;;5.38;100.00;96594.28;10419909;28;2185;-67
2024/02/04 05:06:18;;;;;;;;;;;;;;;5.36;100.00;96590.22;10437726;28;2056;-64
2024/02/04 05:11:22;;;;;;;;;;;;;;;5.36;100.00;96591.03;10420277;28;2227;-66
2024/02/04 05:16:28;;;;;;;;;;;;;;;5.42;100.00;96579.50;10430109;28;2057;-68
2024/02/04 05:21:40;;;;;;;;;;;;;;;5.42;100.00;96574.16;10434598;28;2123;-66
2024/02/04 05:26:47;;;;;;;;;;;;;;;5.47;100.00;96554.00;10434559;28;2065;-65
2024/02/04 05:31:54;;;;;;;;;;;;;;;5.56;100.00;96563.34;10417978;28;2551;-64
2024/02/04 05:37:02;;;;;;;;;;;;;;;5.65;100.00;96586.81;10431221;28;2147;-66
2024/02/04 05:42:07;;;;;;;;;;;;;;;5.53;100.00;96574.44;10427671;28;2108;-69
2024/02/04 05:47:13;;;;;;;;;;;;;;;5.47;100.00;96559.31;10433051;28;2196;-64
2024/02/04 05:52:19;;;;;;;;;;;;;;;5.36;100.00;96572.38;10430676;28;1965;-64
2024/02/04 05:57:24;;;;;;;;;;;;;;;5.38;100.00;96591.63;10414859;28;2124;-66
2024/02/04 06:02:27;;;;;;;;;;;;;;;5.32;100.00;96589.84;10430782;28;2052;-66
2024/02/04 06:07:34;;;;;;;;;;;;;;;5.37;100.00;96597.19;10425791;28;2092;-66
2024/02/04 06:12:40;;;;;;;;;;;;;;;5.38;100.00;96596.94;10428558;28;2357;-66
2024/02/04 06:17:45;;;;;;;;;;;;;;;5.39;100.00;96579.91;10429047;28;2243;-67
2024/02/04 06:23:00;;;;;;;;;;;;;;;5.48;100.00;96593.78;10428668;28;1914;-66
2024/02/04 06:28:04;;;;;;;;;;;;;;;5.49;100.00;96595.41;10431320;28;1998;-65
2024/02/04 06:33:11;;;;;;;;;;;;;;;5.61;100.00;96601.66;10430133;28;2064;-71
2024/02/04 06:38:23;;;;;;;;;;;;;;;5.68;100.00;96593.56;10429482;28;2123;-66
2024/02/04 06:48:57;;;;;;;;;;;;;;;5.66;100.00;96627.63;10429762;28;2176;-66
2024/02/04 06:54:06;;;;;;;;;;;;;;;5.70;100.00;96634.16;10411819;28;2117;-65
2024/02/04 06:59:13;;;;;;;;;;;;;;;5.73;100.00;96633.75;10428312;28;2147;-72
2024/02/04 07:04:18;;;;;;;;;;;;;;;5.76;100.00;96637.81;10411186;28;2091;-72
2024/02/04 07:09:25;;;;;;;;;;;;;;;5.79;100.00;96616.00;10411788;28;2998;-65
2024/02/04 07:14:35;;;;;;;;;;;;;;;5.82;100.00;96605.72;10408778;28;2172;-65
2024/02/04 07:19:43;;;;;;;;;;;;;;;5.94;100.00;96603.16;10429163;28;2313;-64
2024/02/04 07:24:49;;;;;;;;;;;;;;;6.03;100.00;96596.47;10429668;28;2026;-67
2024/02/04 07:29:54;;;;;;;;;;;;;;;6.17;100.00;96591.75;10413124;28;2334;-66
2024/02/04 07:34:58;;;;;;;;;;;;;;;6.15;100.00;96601.84;10412047;28;2081;-66
2024/02/04 07:40:05;;;;;;;;;;;;;;;6.18;100.00;96604.09;10394536;28;2145;-66
2024/02/04 07:45:11;;;;;;;;;;;;;;;6.26;100.00;96606.44;10421979;28;2069;-69
2024/02/04 07:50:15;;;;;;;;;;;;;;;6.47;100.00;96597.09;10425837;28;2089;-69
2024/02/04 07:55:18;;;;;;;;;;;;;;;6.43;100.00;96574.59;10412233;28;2229;-70
2024/02/04 08:00:26;;;;;;;;;;;;;;;6.33;100.00;96577.78;10431851;28;2026;-72
2024/02/04 08:05:36;;;;;;;;;;;;;;;6.46;100.00;96574.13;10430274;28;2400;-68
2024/02/04 08:16:00;;;;;;;;;;;;;;;6.66;100.00;96595.19;10436048;28;2224;-66
2024/02/04 08:21:08;;;;;;;;;;;;;;;6.92;100.00;96581.41;10433194;28;2103;-69
2024/02/04 08:26:14;;;;;;;;;;;;;;;6.99;100.00;96576.75;10434234;28;2360;-67
2024/02/04 08:31:19;;;;;;;;;;;;;;;6.99;100.00;96568.75;10402238;28;2168;-66
2024/02/04 08:36:27;;;;;;;;;;;;;;;7.19;100.00;96573.78;10412593;28;2140;-66
2024/02/04 08:41:30;;;;;;;;;;;;;;;7.38;100.00;96566.47;10430352;28;1951;-66
2024/02/04 08:46:36;;;;;;;;;;;;;;;7.64;100.00;96562.47;10431479;28;2136;-74
2024/02/04 08:51:39;;;;;;;;;;;;;;;7.71;100.00;96555.13;10428084;28;2095;-66
2024/02/04 08:56:49;;;;;;;;;;;;;;;7.67;100.00;96556.63;10417277;28;2443;-65
2024/02/04 09:01:59;;;;;;;;;;;;;;;8.12;100.00;96551.38;10429621;28;2282;-66
2024/02/04 09:07:09;;;;;;;;;;;;;;;8.29;100.00;96542.59;10429505;28;2274;-66
2024/02/04 09:12:13;;;;;;;;;;;;;;;8.36;100.00;96525.34;10430085;28;2211;-66
2024/02/04 09:17:20;;;;;;;;;;;;;;;8.38;100.00;96533.13;10409776;28;1962;-66
2024/02/04 09:22:28;;;;;;;;;;;;;;;8.60;100.00;96526.03;10415619;28;2088;-66
2024/02/04 09:27:32;;;;;;;;;;;;;;;8.50;100.00;96530.38;10430735;28;2277;-70
2024/02/04 09:38:03;;;;;;;;;;;;;;;8.68;100.00;96526.69;10429260;28;2160;-66
2024/02/04 09:43:08;;;;;;;;;;;;;;;8.54;100.00;96527.00;10430327;28;2072;-66
2024/02/04 09:48:15;;;;;;;;;;;;;;;8.84;100.00;96536.56;10426954;28;3154;-67
2024/02/04 09:53:20;;;;;;;;;;;;;;;9.09;100.00;96538.84;10426412;28;2134;-66
2024/02/04 09:58:25;;;;;;;;;;;;;;;9.16;100.00;96540.31;10430789;28;2127;-66
2024/02/04 10:03:40;;;;;;;;;;;;;;;9.03;100.00;96563.97;10427857;28;2154;-65
2024/02/04 10:08:49;;;;;;;;;;;;;;;9.13;100.00;96566.81;10425234;28;2084;-66
2024/02/04 10:13:52;;;;;;;;;;;;;;;9.17;100.00;96567.97;10427071;28;2243;-67
2024/02/04 10:19:02;;;;;;;;;;;;;;;9.27;100.00;96575.34;10427041;28;2173;-66
2024/02/04 10:24:06;;;;;;;;;;;;;;;9.24;100.00;96567.78;10430500;28;2464;-68
2024/02/04 10:29:12;;;;;;;;;;;;;;;9.35;100.00;96548.06;10434121;28;2275;-66
2024/02/04 10:34:19;;;;;;;;;;;;;;;9.59;100.00;96551.38;10427402;28;2121;-66
2024/02/04 10:39:29;;;;;;;;;;;;;;;9.82;100.00;96537.72;10426877;28;2084;-70
2024/02/04 10:44:33;;;;;;;;;;;;;;;9.77;100.00;96534.16;10427691;28;2034;-68
2024/02/04 10:49:40;;;;;;;;;;;;;;;9.73;100.00;96555.31;10428220;28;2155;-71
2024/02/04 10:54:45;;;;;;;;;;;;;;;9.75;100.00;96545.16;10427746;28;2165;-68
2024/02/04 11:00:04;;;;;;;;;;;;;;;10.12;100.00;96548.03;10426830;28;2102;-66
2024/02/04 11:05:08;;;;;;;;;;;;;;;10.49;100.00;96536.59;10426942;28;2017;-67
2024/02/04 11:10:13;;;;;;;;;;;;;;;10.44;100.00;96509.69;10428515;28;2248;-65
2024/02/04 11:15:17;;;;;;;;;;;;;;;10.56;100.00;96499.59;10412716;28;1993;-67
2024/02/04 11:20:20;;;;;;;;;;;;;;;10.53;100.00;96498.19;10428954;28;2232;-68
2024/02/04 11:25:26;;;;;;;;;;;;;;;10.71;100.00;96470.13;10428665;28;2483;-67
2024/02/04 11:30:32;;;;;;;;;;;;;;;10.46;100.00;96473.41;10420547;28;2206;-64
2024/02/04 11:35:43;;;;;;;;;;;;;;;10.23;100.00;96458.41;10436666;28;2181;-72
2024/02/04 11:40:47;;;;;;;;;;;;;;;10.22;100.00;96446.00;10435645;28;2124;-67
2024/02/04 11:45:55;;;;;;;;;;;;;;;10.51;100.00;96443.09;10417288;28;2139;-66
2024/02/04 11:51:02;;;;;;;;;;;;;;;10.95;100.00;96437.50;10419318;28;2033;-66
2024/02/04 11:56:13;;;;;;;;;;;;;;;10.91;100.00;96439.06;10433154;28;2227;-66
2024/02/04 12:01:20;;;;;;;;;;;;;;;10.87;100.00;96435.25;10433028;28;2280;-68
2024/02/04 12:06:23;;;;;;;;;;;;;;;10.58;100.00;96440.19;10414522;28;2104;-68
2024/02/04 12:11:27;;;;;;;;;;;;;;;10.43;100.00;96430.94;10432398;28;2139;-67
2024/02/04 12:16:31;;;;;;;;;;;;;;;10.93;100.00;96426.16;10433389;28;3078;-66
2024/02/04 12:21:36;;;;;;;;;;;;;;;10.83;100.00;96416.16;10420292;28;2128;-70
2024/02/04 12:26:47;;;;;;;;;;;;;;;10.90;100.00;96410.56;10434229;28;2242;-70
2024/02/04 12:31:54;;;;;;;;;;;;;;;10.95;100.00;96399.81;10434653;28;2116;-73
2024/02/04 12:37:03;;;;;;;;;;;;;;;10.82;100.00;96395.72;10434356;28;2103;-72
2024/02/04 12:42:08;;;;;;;;;;;;;;;10.76;100.00;96381.44;10431603;28;2137;-74
2024/02/04 12:47:12;;;;;;;;;;;;;;;10.83;100.00;96382.00;10434685;28;2064;-66
2024/02/04 12:52:22;;;;;;;;;;;;;;;11.05;100.00;96375.66;10435048;28;2242;-66
2024/02/04 12:57:28;;;;;;;;;;;;;;;11.02;100.00;96351.97;10433960;28;2290;-71
2024/02/04 13:02:30;;;;;;;;;;;;;;;11.12;100.00;96341.25;10431264;28;3020;-67
2024/02/04 13:07:39;;;;;;;;;;;;;;;11.48;100.00;96339.50;10430597;28;2233;-68
2024/02/04 13:12:46;;;;;;;;;;;;;;;11.44;100.00;96337.59;10416556;28;2287;-73
2024/02/04 13:17:49;;;;;;;;;;;;;;;11.44;100.00;96373.38;10431034;28;2017;-67
2024/02/04 13:22:53;;;;;;;;;;;;;;;11.18;100.00;96377.06;10431074;28;2135;-66
2024/02/04 13:27:56;;;;;;;;;;;;;;;10.99;100.00;96369.44;10433516;28;2121;-69
2024/02/04 13:33:14;;;;;;;;;;;;;;;10.88;100.00;96372.31;10419991;28;2100;-66
2024/02/04 13:38:20;;;;;;;;;;;;;;;10.73;100.00;96371.19;10435028;28;2049;-66
2024/02/04 13:43:28;;;;;;;;;;;;;;;10.61;100.00;96361.69;10435220;28;2275;-66
2024/02/04 13:48:40;;;;;;;;;;;;;;;10.51;100.00;96357.06;10432785;28;2117;-68
2024/02/04 13:53:46;;;;;;;;;;;;;;;10.55;100.00;96367.03;10425291;28;2037;-66
2024/02/04 13:58:52;;;;;;;;;;;;;;;10.51;100.00;96357.06;10430768;28;2120;-66
2024/02/04 14:03:57;;;;;;;;;;;;;;;10.58;100.00;96354.16;10432748;28;2141;-70
2024/02/04 14:09:05;;;;;;;;;;;;;;;10.62;100.00;96337.22;10431150;28;2056;-70
2024/02/04 14:14:09;;;;;;;;;;;;;;;10.58;100.00;96340.72;10432895;28;2207;-67
2024/02/04 14:19:13;;;;;;;;;;;;;;;10.43;100.00;96346.78;10429978;28;2260;-65
2024/02/04 14:24:18;;;;;;;;;;;;;;;10.52;100.00;96356.00;10431378;28;2166;-66
2024/02/04 14:29:28;;;;;;;;;;;;;;;10.63;100.00;96349.63;10432945;28;2164;-67
2024/02/04 14:34:37;;;;;;;;;;;;;;;10.61;100.00;96357.13;10427903;28;2123;-66
2024/02/04 14:39:49;;;;;;;;;;;;;;;10.48;100.00;96379.06;10428908;28;2517;-65
2024/02/04 14:45:00;;;;;;;;;;;;;;;10.44;100.00;96356.47;10411857;28;2044;-65
2024/02/04 14:50:07;;;;;;;;;;;;;;;10.47;100.00;96339.81;10413660;28;2443;-66
2024/02/04 14:55:11;;;;;;;;;;;;;;;10.55;100.00;96347.41;10428307;28;2077;-67
2024/02/04 15:00:21;;;;;;;;;;;;;;;10.59;100.00;96356.56;10409757;28;2363;-66
2024/02/04 15:05:25;;;;;;;;;;;;;;;10.46;100.00;96360.53;10426152;28;1986;-66
2024/02/04 15:10:32;;;;;;;;;;;;;;;10.51;100.00;96357.88;10426309;28;2246;-67
2024/02/04 15:15:36;;;;;;;;;;;;;;;10.48;100.00;96353.00;10409839;28;2140;-68
2024/02/04 15:20:46;;;;;;;;;;;;;;;10.51;100.00;96352.50;10426616;28;2101;-68
2024/02/04 15:25:55;;;;;;;;;;;;;;;10.53;100.00;96352.22;10410411;28;2423;-68
2024/02/04 15:30:59;;;;;;;;;;;;;;;10.51;100.00;96359.75;10430118;28;2354;-66
2024/02/04 15:36:08;;;;;;;;;;;;;;;10.56;100.00;96370.53;10406182;28;2233;-66
2024/02/04 15:41:19;;;;;;;;;;;;;;;10.47;100.00;96355.94;10409373;28;2119;-67
2024/02/04 15:46:27;;;;;;;;;;;;;;;10.43;100.00;96360.22;10424495;28;2168;-67
2024/02/04 15:51:31;;;;;;;;;;;;;;;10.45;100.00;96363.47;10422110;28;2210;-66
2024/02/04 15:56:40;;;;;;;;;;;;;;;10.40;100.00;96360.75;10404407;28;2263;-66
2024/02/04 16:01:48;;;;;;;;;;;;;;;10.42;100.00;96362.09;10425038;28;2173;-66
2024/02/04 16:06:55;;;;;;;;;;;;;;;10.45;100.00;96353.53;10423500;28;2220;-67
2024/02/04 16:12:09;;;;;;;;;;;;;;;10.42;100.00;96363.97;10425126;28;2328;-67
2024/02/04 16:17:12;;;;;;;;;;;;;;;10.42;100.00;96370.16;10429694;28;2123;-72
2024/02/04 16:22:19;;;;;;;;;;;;;;;10.32;100.00;96359.34;10412857;28;2151;-66
2024/02/04 16:32:49;;;;;;;;;;;;;;;10.33;100.00;96382.47;10438559;28;2076;-68
2024/02/04 16:37:57;;;;;;;;;;;;;;;10.24;100.00;96383.97;10432961;28;2122;-66
2024/02/04 16:43:10;;;;;;;;;;;;;;;10.12;100.00;96380.66;10419043;28;2332;-68
2024/02/04 16:48:17;;;;;;;;;;;;;;;10.09;100.00;96381.97;10431272;28;2338;-65
2024/02/04 16:53:30;;;;;;;;;;;;;;;9.99;100.00;96377.31;10429877;28;2151;-70
2024/02/04 16:58:51;;;;;;;;;;;;;;;9.90;100.00;96370.78;10433402;28;2576;-67
2024/02/04 17:03:55;;;;;;;;;;;;;;;9.90;100.00;96378.03;10432484;28;2116;-67
2024/02/04 17:09:04;;;;;;;;;;;;;;;9.86;100.00;96393.00;10432599;28;2107;-70
2024/02/04 17:14:13;;;;;;;;;;;;;;;9.71;100.00;96382.94;10426200;28;2082;-72
2024/02/04 17:19:18;;;;;;;;;;;;;;;9.65;100.00;96384.75;10429690;28;2119;-65
2024/02/04 17:24:32;;;;;;;;;;;;;;;9.44;100.00;96380.22;10410978;28;2419;-67
2024/02/04 17:29:39;;;;;;;;;;;;;;;9.38;100.00;96398.16;10413825;28;2268;-67
2024/02/04 17:34:45;;;;;;;;;;;;;;;9.34;100.00;96397.00;10432015;28;2112;-68
2024/02/04 17:39:52;;;;;;;;;;;;;;;9.31;100.00;96399.41;10431764;28;2718;-68
2024/02/04 17:45:05;;;;;;;;;;;;;;;9.29;100.00;96401.50;10433965;28;2149;-68
2024/02/04 17:50:12;;;;;;;;;;;;;;;9.17;100.00;96389.03;10426453;28;2394;-68
2024/02/04 17:55:20;;;;;;;;;;;;;;;9.08;100.00;96398.56;10430681;28;2114;-68
2024/02/04 18:00:25;;;;;;;;;;;;;;;9.04;100.00;96385.94;10429672;28;2267;-72
2024/02/04 18:05:32;;;;;;;;;;;;;;;9.00;100.00;96390.97;10429482;28;2065;-72
2024/02/04 18:10:39;;;;;;;;;;;;;;;8.92;100.00;96394.88;10431339;28;2092;-68
2024/02/04 18:15:53;;;;;;;;;;;;;;;8.83;100.00;96390.19;10411858;28;2135;-68
2024/02/04 18:21:05;;;;;;;;;;;;;;;8.77;100.00;96375.91;10419701;28;2119;-73
2024/02/04 18:26:35;;;;;;;;;;;;;;;8.78;100.00;96393.63;10430133;28;2233;-69
2024/02/04 18:31:45;;;;;;;;;;;;;;;8.74;100.00;96386.31;10433005;28;2118;-72
2024/02/04 18:36:52;;;;;;;;;;;;;;;8.61;100.00;96372.22;10428711;28;2742;-67
2024/02/04 18:41:55;;;;;;;;;;;;;;;8.62;100.00;96367.66;10426041;28;2215;-69
2024/02/04 18:46:59;;;;;;;;;;;;;;;8.54;100.00;96360.84;10441592;28;1983;-68
2024/02/04 18:52:03;;;;;;;;;;;;;;;8.55;100.00;96359.78;10446107;28;1890;-69
2024/02/04 18:57:11;;;;;;;;;;;;;;;8.44;100.00;96370.59;10439766;28;1933;-68
2024/02/04 19:02:18;;;;;;;;;;;;;;;8.53;100.00;96366.47;10422091;28;1673;-69
2024/02/04 19:07:31;;;;;;;;;;;;;;;8.48;100.00;96377.09;10448028;28;1913;-72
2024/02/04 19:12:38;;;;;;;;;;;;;;;8.43;100.00;96364.44;10454576;28;1563;-68
2024/02/04 19:17:54;;;;;;;;;;;;;;;8.48;100.00;96372.56;10446190;28;2253;-72
2024/02/04 19:23:03;;;;;;;;;;;;;;;8.46;100.00;96382.72;10448220;28;1818;-73
2024/02/04 19:28:09;;;;;;;;;;;;;;;8.43;100.00;96385.88;10449662;28;1969;-73
2024/02/04 19:33:15;;;;;;;;;;;;;;;8.49;100.00;96390.25;10443315;28;1968;-70
2024/02/04 19:38:18;;;;;;;;;;;;;;;8.46;100.00;96384.56;10454199;28;1732;-71
2024/02/04 19:43:23;;;;;;;;;;;;;;;8.41;100.00;96379.94;10453127;28;1466;-66
2024/02/04 19:53:49;;;;;;;;;;;;;;;8.43;100.00;96369.78;10459136;28;1481;-68
2024/02/04 19:59:03;;;;;;;;;;;;;;;8.42;100.00;96349.41;10472294;28;1514;-67
2024/02/04 20:04:09;;;;;;;;;;;;;;;8.40;100.00;96348.88;10459907;28;1483;-68
2024/02/04 20:09:22;;;;;;;;;;;;;;;8.42;100.00;96362.81;10443103;28;1977;-67
2024/02/04 20:14:27;;;;;;;;;;;;;;;8.33;100.00;96362.41;10456799;28;1874;-66
2024/02/04 20:19:38;;;;;;;;;;;;;;;8.37;100.00;96360.06;10465965;28;1462;-69
2024/02/04 20:24:46;;;;;;;;;;;;;;;8.31;100.00;96361.00;10462816;28;3482;-74
2024/02/04 20:29:53;;;;;;;;;;;;;;;8.31;100.00;96366.34;10452201;28;1916;-67
2024/02/04 20:35:19;;;;;;;;;;;;;;;8.24;100.00;96376.44;10434304;28;1913;-66
2024/02/04 20:40:25;;;;;;;;;;;;;;;8.34;100.00;96372.06;10433435;28;2116;-67
2024/02/04 20:45:31;;;;;;;;;;;;;;;8.38;100.00;96367.84;10434797;28;2187;-66
2024/02/04 20:50:36;;;;;;;;;;;;;;;8.25;100.00;96370.00;10430255;28;2212;-65
2024/02/04 20:55:40;;;;;;;;;;;;;;;8.29;100.00;96363.94;10432607;28;2269;-67
2024/02/04 21:00:44;;;;;;;;;;;;;;;8.32;100.00;96358.06;10431956;28;2058;-65
2024/02/04 21:05:53;;;;;;;;;;;;;;;8.34;100.00;96352.50;10437222;28;2099;-66
2024/02/04 21:16:30;;;;;;;;;;;;;;;8.32;100.00;96322.44;10431596;28;2194;-66
2024/02/04 21:21:34;;;;;;;;;;;;;;;8.36;100.00;96324.41;10431388;28;2200;-67
2024/02/04 21:26:49;;;;;;;;;;;;;;;8.32;100.00;96325.13;10436798;28;2228;-67
2024/02/04 21:31:55;;;;;;;;;;;;;;;8.38;100.00;96318.81;10434113;28;2127;-72
2024/02/04 21:37:03;;;;;;;;;;;;;;;8.33;100.00;96326.72;10432779;28;2169;-70
2024/02/04 21:42:09;;;;;;;;;;;;;;;8.41;100.00;96323.69;10433011;28;2209;-69
2024/02/04 21:47:12;;;;;;;;;;;;;;;8.30;100.00;96311.97;10432663;28;2156;-69
2024/02/04 21:52:17;;;;;;;;;;;;;;;8.38;100.00;96297.38;10413613;28;2701;-69
2024/02/04 21:57:31;;;;;;;;;;;;;;;8.27;100.00;96291.06;10432065;28;2110;-66
2024/02/04 22:02:37;;;;;;;;;;;;;;;8.13;100.00;96295.91;10417079;28;1903;-66
2024/02/04 22:07:43;;;;;;;;;;;;;;;8.18;100.00;96299.75;10432413;28;2245;-65
2024/02/04 22:12:50;;;;;;;;;;;;;;;8.14;100.00;96291.38;10415308;28;2098;-66
2024/02/04 22:17:53;;;;;;;;;;;;;;;8.13;100.00;96295.09;10419798;28;2220;-64
2024/02/04 22:23:03;;;;;;;;;;;;;;;8.20;100.00;96305.66;10432523;28;2021;-65
2024/02/04 22:28:06;;;;;;;;;;;;;;;8.21;100.00;96301.94;10416823;28;2293;-63
2024/02/04 22:33:12;;;;;;;;;;;;;;;8.16;100.00;96301.84;10431277;28;2496;-64
2024/02/04 22:38:22;;;;;;;;;;;;;;;8.07;100.00;96302.25;10419456;28;2342;-72
2024/02/04 22:43:26;;;;;;;;;;;;;;;8.12;100.00;96298.84;10432772;28;2138;-70
2024/02/04 22:48:34;;;;;;;;;;;;;;;8.10;100.00;96288.38;10431523;28;2126;-65
2024/02/04 22:53:38;;;;;;;;;;;;;;;8.06;100.00;96279.22;10429373;28;2131;-66
2024/02/04 22:58:42;;;;;;;;;;;;;;;8.03;100.00;96279.72;10432378;28;2057;-66
2024/02/04 23:03:47;;;;;;;;;;;;;;;8.04;100.00;96280.53;10430004;28;2418;-68
2024/02/04 23:08:58;;;;;;;;;;;;;;;7.95;100.00;96281.97;10413456;28;2248;-65
2024/02/04 23:14:04;;;;;;;;;;;;;;;7.94;100.00;96269.66;10411051;28;2070;-65
2024/02/04 23:19:08;;;;;;;;;;;;;;;7.88;100.00;96255.38;10434311;28;2028;-64
2024/02/04 23:24:18;;;;;;;;;;;;;;;7.87;100.00;96253.75;10430406;28;2106;-66
2024/02/04 23:29:28;;;;;;;;;;;;;;;7.88;100.00;96249.22;10436213;28;2250;-66
2024/02/04 23:34:34;;;;;;;;;;;;;;;7.91;100.00;96244.19;10437685;28;2127;-69
2024/02/04 23:39:43;;;;;;;;;;;;;;;8.05;100.00;96244.66;10420718;28;2121;-64
2024/02/04 23:44:46;;;;;;;;;;;;;;;7.98;100.00;96242.16;10435013;28;2262;-65
2024/02/04 23:49:52;;;;;;;;;;;;;;;8.12;100.00;96224.69;10436909;28;2131;-65
2024/02/04 23:55:02;;;;;;;;;;;;;;;8.09;100.00;96224.38;10432661;28;2563;-65
